Time;durP1;ratioP1;P1;durP2;ratioP2;P2;SDS_P1;SDS_P2;PMS_P1;PMS_P2;Temp;Humidity;BMP_temperature;BMP_pressure;BME280_temperature;BME280_humidity;BME280_pressure;Samples;Min_cycle;Max_cycle;Signal;HPM_P1;HPM_P2
2023/05/22 00:00:19;;;;;;;15.00;11.20;;;;;;;-142.57;100.00;115900.28;4899580;29;20064;-85
2023/05/22 00:02:45;;;;;;;17.48;11.50;;;;;;;-142.57;100.00;115900.28;4899785;29;20037;-86
2023/05/22 00:05:12;;;;;;;18.58;11.63;;;;;;;-142.57;100.00;115900.28;4899358;29;20036;-90
2023/05/22 00:07:39;;;;;;;17.77;11.77;;;;;;;-142.57;100.00;115900.28;4900639;29;20052;-88
2023/05/22 00:10:05;;;;;;;17.70;12.40;;;;;;;-142.57;100.00;115900.28;4899003;29;20164;-85
2023/05/22 00:12:31;;;;;;;15.73;11.95;;;;;;;-142.57;100.00;115900.28;4899674;29;20043;-88
2023/05/22 00:14:57;;;;;;;20.20;12.55;;;;;;;-142.57;100.00;115900.28;4901064;29;20040;-88
2023/05/22 00:17:25;;;;;;;22.35;11.60;;;;;;;-142.57;100.00;115900.28;4897439;29;20503;-89
2023/05/22 00:19:52;;;;;;;19.08;11.38;;;;;;;-142.57;100.00;115900.28;4899754;29;20135;-85
2023/05/22 00:22:19;;;;;;;17.50;11.75;;;;;;;-142.57;100.00;115900.28;4900151;29;20032;-87
2023/05/22 00:24:47;;;;;;;18.73;11.52;;;;;;;-142.57;100.00;115900.28;4899525;29;20100;-86
2023/05/22 00:27:12;;;;;;;17.77;10.75;;;;;;;-142.57;100.00;115900.28;4899383;29;20040;-87
2023/05/22 00:29:38;;;;;;;17.80;11.07;;;;;;;-142.57;100.00;115900.28;4897698;29;20040;-86
2023/05/22 00:32:04;;;;;;;13.75;10.70;;;;;;;-142.57;100.00;115900.28;4898464;29;20037;-89
2023/05/22 00:34:30;;;;;;;20.17;12.15;;;;;;;-142.57;100.00;115900.28;4898813;29;20557;-86
2023/05/22 00:37:11;;;;;;;16.35;11.68;;;;;;;-142.57;100.00;115900.28;4900481;29;20123;-87
2023/05/22 00:39:37;;;;;;;15.85;11.60;;;;;;;-142.57;100.00;115900.28;4898454;29;20123;-90
2023/05/22 00:42:03;;;;;;;15.35;11.45;;;;;;;-142.57;100.00;115900.28;4900173;29;20052;-87
2023/05/22 00:44:28;;;;;;;15.85;11.27;;;;;;;-142.57;100.00;115900.28;4900395;29;20041;-88
2023/05/22 00:46:55;;;;;;;17.80;12.60;;;;;;;-142.57;100.00;115900.28;4899249;29;20036;-87
2023/05/22 00:49:21;;;;;;;18.25;11.35;;;;;;;-142.57;100.00;115900.28;4883901;29;20043;-86
2023/05/22 00:51:49;;;;;;;15.55;10.93;;;;;;;-142.57;100.00;115900.28;4899952;29;20494;-86
2023/05/22 00:54:16;;;;;;;20.83;11.32;;;;;;;-142.57;100.00;115900.28;4899706;29;20044;-86
2023/05/22 00:56:45;;;;;;;17.45;11.40;;;;;;;-142.57;100.00;115900.28;4899861;29;20092;-86
2023/05/22 00:59:13;;;;;;;14.65;10.68;;;;;;;-142.57;100.00;115900.28;4900209;29;20051;-87
2023/05/22 01:01:41;;;;;;;14.93;10.52;;;;;;;-142.57;100.00;115900.28;4899205;29;20398;-85
2023/05/22 01:07:55;;;;;;;18.10;12.43;;;;;;;-142.57;100.00;115900.28;4910062;29;20075;-86
2023/05/22 01:10:22;;;;;;;15.05;11.55;;;;;;;-142.57;100.00;115900.28;4920081;29;20059;-86
2023/05/22 01:13:20;;;;;;;19.73;11.43;;;;;;;-142.57;100.00;115900.28;4920133;29;20187;-83
2023/05/22 01:15:55;;;;;;;16.55;11.13;;;;;;;-142.57;100.00;115900.28;4879799;29;20396;-88
2023/05/22 01:18:32;;;;;;;15.07;11.73;;;;;;;-142.57;100.00;115900.28;4899538;29;20033;-88
2023/05/22 01:21:17;;;;;;;21.30;13.05;;;;;;;-142.57;100.00;115900.28;4901961;29;20048;-87
2023/05/22 01:24:05;;;;;;;23.42;13.90;;;;;;;-142.57;100.00;115900.28;4900119;29;20032;-86
2023/05/22 01:26:45;;;;;;;17.33;12.80;;;;;;;-142.57;100.00;115900.28;4899916;29;20109;-87
2023/05/22 01:29:44;;;;;;;20.33;13.65;;;;;;;-142.57;100.00;115900.28;4899990;29;20093;-89
2023/05/22 01:32:13;;;;;;;22.85;13.95;;;;;;;-142.57;100.00;115900.28;4868049;29;20048;-88
2023/05/22 01:34:43;;;;;;;22.38;13.77;;;;;;;-142.57;100.00;115900.28;4897890;29;20068;-87
2023/05/22 01:37:10;;;;;;;22.98;13.57;;;;;;;-142.57;100.00;115900.28;4897643;29;20036;-87
2023/05/22 01:39:37;;;;;;;21.17;14.45;;;;;;;-142.57;100.00;115900.28;4901140;29;20448;-87
2023/05/22 01:42:04;;;;;;;21.92;14.57;;;;;;;-142.57;100.00;115900.28;4908225;29;20067;-87
2023/05/22 01:44:30;;;;;;;26.13;14.57;;;;;;;-142.57;100.00;115900.28;4912500;29;20038;-87
2023/05/22 01:46:59;;;;;;;21.83;14.32;;;;;;;-142.57;100.00;115900.28;4912160;29;20119;-84
2023/05/22 01:49:26;;;;;;;30.60;15.60;;;;;;;-142.57;100.00;115900.28;4911401;29;20030;-88
2023/05/22 01:52:10;;;;;;;19.92;14.50;;;;;;;-142.57;100.00;115900.28;4910936;29;20060;-84
2023/05/22 01:54:52;;;;;;;25.88;15.80;;;;;;;-142.57;100.00;115900.28;4908057;29;20047;-85
2023/05/22 01:57:32;;;;;;;24.20;15.48;;;;;;;-142.57;100.00;115900.28;4909985;29;20124;-84
2023/05/22 02:00:09;;;;;;;24.15;15.40;;;;;;;-142.57;100.00;115900.28;4909420;29;20047;-85
2023/05/22 02:02:48;;;;;;;26.65;15.57;;;;;;;-142.57;100.00;115900.28;4907325;29;20053;-86
2023/05/22 02:05:17;;;;;;;22.20;15.18;;;;;;;-142.57;100.00;115900.28;4909329;29;20043;-86
2023/05/22 02:07:44;;;;;;;23.58;15.48;;;;;;;-142.57;100.00;115900.28;4908284;29;20105;-86
2023/05/22 02:10:13;;;;;;;23.48;15.52;;;;;;;-142.57;100.00;115900.28;4906194;29;20047;-85
2023/05/22 02:12:39;;;;;;;23.33;14.77;;;;;;;-142.57;100.00;115900.28;4907777;29;20099;-85
2023/05/22 02:15:07;;;;;;;25.92;13.20;;;;;;;-142.57;100.00;115900.28;4909868;29;20068;-84
2023/05/22 02:17:39;;;;;;;22.40;13.85;;;;;;;-142.57;100.00;115900.28;4908007;29;20112;-86
2023/05/22 02:20:15;;;;;;;18.97;12.87;;;;;;;-142.57;100.00;115900.28;4900408;29;20037;-85
2023/05/22 02:22:44;;;;;;;33.05;13.50;;;;;;;-142.57;100.00;115900.28;4899630;29;20491;-86
2023/05/22 02:25:13;;;;;;;22.75;13.63;;;;;;;-142.57;100.00;115900.28;4900650;29;20076;-85
2023/05/22 02:27:40;;;;;;;21.02;12.80;;;;;;;-142.57;100.00;115900.28;4902582;29;20048;-86
2023/05/22 02:30:07;;;;;;;23.60;13.55;;;;;;;-142.57;100.00;115900.28;4899380;29;20105;-85
2023/05/22 02:32:32;;;;;;;18.98;13.95;;;;;;;-142.57;100.00;115900.28;4900530;29;20060;-83
2023/05/22 02:34:58;;;;;;;21.48;13.80;;;;;;;-142.57;100.00;115900.28;4901251;29;20076;-85
2023/05/22 02:37:23;;;;;;;22.50;14.20;;;;;;;-142.57;100.00;115900.28;4901828;29;20111;-86
2023/05/22 02:39:49;;;;;;;21.88;14.60;;;;;;;-142.57;100.00;115900.28;4900874;29;20049;-84
2023/05/22 02:42:15;;;;;;;28.45;13.85;;;;;;;-142.57;100.00;115900.28;4884305;29;20383;-84
2023/05/22 02:44:41;;;;;;;23.75;14.20;;;;;;;-142.57;100.00;115900.28;4899629;29;20048;-85
2023/05/22 02:47:06;;;;;;;24.08;14.35;;;;;;;-142.57;100.00;115900.28;4899849;29;20119;-85
2023/05/22 02:49:33;;;;;;;23.13;14.55;;;;;;;-142.57;100.00;115900.28;4899567;29;20105;-87
2023/05/22 02:51:59;;;;;;;17.38;12.93;;;;;;;-142.57;100.00;115900.28;4898988;29;20044;-85
2023/05/22 02:54:24;;;;;;;20.25;12.40;;;;;;;-142.57;100.00;115900.28;4899323;29;20084;-85
2023/05/22 02:56:50;;;;;;;23.70;14.20;;;;;;;-142.57;100.00;115900.28;4900998;29;20036;-84
2023/05/22 02:59:15;;;;;;;30.70;14.48;;;;;;;-142.57;100.00;115900.28;4900421;29;20427;-85
2023/05/22 03:01:43;;;;;;;23.23;12.80;;;;;;;-142.57;100.00;115900.28;4899324;29;20048;-88
2023/05/22 03:04:08;;;;;;;21.23;13.77;;;;;;;-142.57;100.00;115900.28;4900922;29;20075;-87
2023/05/22 03:06:35;;;;;;;24.33;14.07;;;;;;;-142.57;100.00;115900.28;4883859;29;20077;-86
2023/05/22 03:09:03;;;;;;;18.33;12.93;;;;;;;-142.57;100.00;115900.28;4900263;29;20035;-86
2023/05/22 03:11:29;;;;;;;20.35;13.25;;;;;;;-142.57;100.00;115900.28;4900458;29;20096;-86
2023/05/22 03:13:58;;;;;;;20.95;14.07;;;;;;;-142.57;100.00;115900.28;4899381;29;20044;-86
2023/05/22 03:16:25;;;;;;;17.88;13.85;;;;;;;-142.57;100.00;115900.28;4900428;29;20057;-88
2023/05/22 03:19:06;;;;;;;25.15;13.45;;;;;;;-142.57;100.00;115900.28;4898864;29;20036;-87
2023/05/22 03:21:32;;;;;;;21.30;14.85;;;;;;;-142.57;100.00;115900.28;4883743;29;20482;-87
2023/05/22 03:23:57;;;;;;;22.15;12.93;;;;;;;-142.57;100.00;115900.28;4900698;29;20044;-85
2023/05/22 03:26:23;;;;;;;23.67;13.95;;;;;;;-142.57;100.00;115900.28;4900022;29;20037;-86
2023/05/22 03:28:49;;;;;;;19.90;13.52;;;;;;;-142.57;100.00;115900.28;4899509;29;20043;-85
2023/05/22 03:31:16;;;;;;;27.40;13.80;;;;;;;-142.57;100.00;115900.28;4898522;29;20043;-86
2023/05/22 03:33:57;;;;;;;22.83;14.48;;;;;;;-142.57;100.00;115900.28;4898427;29;20062;-88
2023/05/22 03:36:24;;;;;;;21.13;14.07;;;;;;;-142.57;100.00;115900.28;4897954;29;20044;-85
2023/05/22 03:38:50;;;;;;;20.63;13.45;;;;;;;-142.57;100.00;115900.28;4897814;29;20033;-88
2023/05/22 03:41:16;;;;;;;24.63;13.07;;;;;;;-142.57;100.00;115900.28;4899835;29;20039;-86
2023/05/22 03:43:42;;;;;;;19.77;13.00;;;;;;;-142.57;100.00;115900.28;4900780;29;20084;-84
2023/05/22 03:46:09;;;;;;;29.63;13.45;;;;;;;-142.57;100.00;115900.28;4902364;29;20084;-86
2023/05/22 03:48:35;;;;;;;23.70;13.35;;;;;;;-142.57;100.00;115900.28;4900212;29;20100;-89
2023/05/22 03:51:00;;;;;;;25.55;12.98;;;;;;;-142.57;100.00;115900.28;4899438;29;20436;-85
2023/05/22 03:53:26;;;;;;;19.48;13.82;;;;;;;-142.57;100.00;115900.28;4899993;29;20057;-84
2023/05/22 03:55:52;;;;;;;21.20;13.63;;;;;;;-142.57;100.00;115900.28;4901335;29;20041;-88
2023/05/22 03:58:17;;;;;;;19.88;12.88;;;;;;;-142.57;100.00;115900.28;4904680;29;20456;-86
2023/05/22 04:00:45;;;;;;;19.67;13.30;;;;;;;-142.57;100.00;115900.28;4918216;29;20047;-83
2023/05/22 04:03:11;;;;;;;20.92;13.60;;;;;;;-142.57;100.00;115900.28;4917710;29;20100;-84
2023/05/22 04:05:40;;;;;;;19.42;13.85;;;;;;;-142.57;100.00;115900.28;4901828;29;20104;-86
2023/05/22 04:08:06;;;;;;;20.38;14.25;;;;;;;-142.57;100.00;115900.28;4899821;29;20028;-88
2023/05/22 04:10:31;;;;;;;24.48;13.20;;;;;;;-142.57;100.00;115900.28;4898374;29;20047;-85
2023/05/22 04:12:58;;;;;;;18.60;13.30;;;;;;;-142.57;100.00;115900.28;4899232;29;20037;-86
2023/05/22 04:15:23;;;;;;;19.08;13.63;;;;;;;-142.57;100.00;115900.28;4899873;29;20100;-86
2023/05/22 04:17:50;;;;;;;21.98;13.48;;;;;;;-142.57;100.00;115900.28;4898020;29;20210;-89
2023/05/22 04:20:16;;;;;;;21.20;13.07;;;;;;;-142.57;100.00;115900.28;4898539;29;20048;-89
2023/05/22 04:22:44;;;;;;;23.25;13.23;;;;;;;-142.57;100.00;115900.28;4899997;29;20079;-89
2023/05/22 04:25:10;;;;;;;17.75;12.05;;;;;;;-142.57;100.00;115900.28;4898379;29;20074;-88
2023/05/22 04:27:36;;;;;;;21.55;12.55;;;;;;;-142.57;100.00;115900.28;4901698;29;20036;-88
2023/05/22 04:30:02;;;;;;;21.52;11.98;;;;;;;-142.57;100.00;115900.28;4900321;29;20036;-88
2023/05/22 04:32:28;;;;;;;19.90;12.90;;;;;;;-142.57;100.00;115900.28;4899447;29;20039;-85
2023/05/22 04:34:59;;;;;;;22.52;12.02;;;;;;;-142.57;100.00;115900.28;4902126;29;20055;-86
2023/05/22 04:37:27;;;;;;;21.02;13.20;;;;;;;-142.57;100.00;115900.28;4900294;29;20502;-91
2023/05/22 04:39:57;;;;;;;20.73;11.23;;;;;;;-142.57;100.00;115900.28;4899045;29;20463;-88
2023/05/22 04:42:24;;;;;;;20.70;12.45;;;;;;;-142.57;100.00;115900.28;4907393;29;20077;-87
2023/05/22 04:44:51;;;;;;;22.35;11.77;;;;;;;-142.57;100.00;115900.28;4903719;29;20037;-86
2023/05/22 04:47:18;;;;;;;24.75;12.27;;;;;;;-142.57;100.00;115900.28;4902053;29;20052;-84
2023/05/22 04:49:45;;;;;;;27.50;13.25;;;;;;;-142.57;100.00;115900.28;4900543;29;20040;-88
2023/05/22 04:52:10;;;;;;;21.60;13.15;;;;;;;-142.57;100.00;115900.28;4905089;29;20084;-84
2023/05/22 04:54:37;;;;;;;18.33;12.43;;;;;;;-142.57;100.00;115900.28;4900940;29;20040;-90
2023/05/22 04:57:04;;;;;;;17.48;12.90;;;;;;;-142.57;100.00;115900.28;4886403;29;20036;-86
2023/05/22 04:59:45;;;;;;;23.67;12.52;;;;;;;-142.57;100.00;115900.28;4902934;29;20506;-85
2023/05/22 05:02:13;;;;;;;21.17;12.15;;;;;;;-142.57;100.00;115900.28;4904243;29;20139;-89
2023/05/22 05:04:40;;;;;;;19.42;12.32;;;;;;;-142.57;100.00;115900.28;4911477;29;20096;-90
2023/05/22 05:07:09;;;;;;;17.02;12.00;;;;;;;-142.57;100.00;115900.28;4907956;29;20096;-84
2023/05/22 05:09:36;;;;;;;19.08;12.65;;;;;;;-142.57;100.00;115900.28;4901353;29;20174;-91
2023/05/22 05:12:02;;;;;;;20.42;12.63;;;;;;;-142.57;100.00;115900.28;4902591;29;20052;-87
2023/05/22 05:14:38;;;;;;;21.67;12.98;;;;;;;-142.57;100.00;115900.28;4907524;29;20044;-89
2023/05/22 05:17:03;;;;;;;25.17;12.45;;;;;;;-142.57;100.00;115900.28;4911599;29;20033;-88
2023/05/22 05:19:29;;;;;;;19.00;11.90;;;;;;;-142.57;100.00;115900.28;4909395;29;20566;-87
2023/05/22 05:21:55;;;;;;;22.48;11.90;;;;;;;-142.57;100.00;115900.28;4906725;29;20036;-86
2023/05/22 05:24:21;;;;;;;19.30;12.05;;;;;;;-142.57;100.00;115900.28;4908589;29;20566;-88
2023/05/22 05:26:49;;;;;;;19.70;12.50;;;;;;;-142.57;100.00;115900.28;4904286;29;20040;-84
2023/05/22 05:29:16;;;;;;;21.55;12.15;;;;;;;-142.57;100.00;115900.28;4905372;29;20115;-87
2023/05/22 05:31:50;;;;;;;17.33;11.52;;;;;;;-142.57;100.00;115900.28;4904215;29;20104;-85
2023/05/22 05:34:26;;;;;;;20.83;12.52;;;;;;;-142.57;100.00;115900.28;4892494;29;20503;-88
2023/05/22 05:37:11;;;;;;;16.25;11.43;;;;;;;-142.57;100.00;115900.28;4886112;29;20087;-87
2023/05/22 05:39:37;;;;;;;19.38;12.20;;;;;;;-142.57;100.00;115900.28;4907456;29;20127;-87
2023/05/22 05:42:05;;;;;;;19.65;12.27;;;;;;;-142.57;100.00;115900.28;4925778;29;20031;-86
2023/05/22 05:44:31;;;;;;;17.67;11.70;;;;;;;-142.57;100.00;115900.28;4926873;29;20040;-87
2023/05/22 05:46:57;;;;;;;21.65;12.95;;;;;;;-142.57;100.00;115900.28;4907544;29;20055;-86
2023/05/22 05:49:25;;;;;;;23.65;12.15;;;;;;;-142.57;100.00;115900.28;4922837;29;20076;-87
2023/05/22 05:51:50;;;;;;;18.65;12.30;;;;;;;-142.57;100.00;115900.28;4931051;29;20039;-87
2023/05/22 05:54:17;;;;;;;19.45;12.63;;;;;;;-142.57;100.00;115900.28;4930593;29;20055;-85
2023/05/22 05:56:44;;;;;;;22.27;11.52;;;;;;;-142.57;100.00;115900.28;4928828;29;20036;-90
2023/05/22 05:59:10;;;;;;;24.70;12.00;;;;;;;-142.57;100.00;115900.28;4928286;29;20498;-85
2023/05/22 06:01:37;;;;;;;19.45;12.50;;;;;;;-142.57;100.00;115900.28;4929623;29;20048;-84
2023/05/22 06:04:04;;;;;;;19.02;11.50;;;;;;;-142.57;100.00;115900.28;4930536;29;20036;-89
2023/05/22 06:06:38;;;;;;;20.73;11.50;;;;;;;-142.57;100.00;115900.28;4932034;23;20117;-85
2023/05/22 06:09:13;;;;;;;22.33;10.98;;;;;;;-142.57;100.00;115900.28;4878659;29;20090;-86
2023/05/22 06:12:02;;;;;;;15.55;11.27;;;;;;;-142.57;100.00;115900.28;4861600;29;20066;-88
2023/05/22 06:14:28;;;;;;;17.13;11.20;;;;;;;-142.57;100.00;115900.28;4873552;29;20046;-87
2023/05/22 06:16:57;;;;;;;18.63;11.38;;;;;;;-142.57;100.00;115900.28;4879086;29;20029;-86
2023/05/22 06:19:23;;;;;;;19.08;11.75;;;;;;;-142.57;100.00;115900.28;4874867;29;20056;-85
2023/05/22 06:21:49;;;;;;;20.58;11.10;;;;;;;-142.57;100.00;115900.28;4876278;29;20041;-88
2023/05/22 06:24:18;;;;;;;17.77;11.48;;;;;;;-142.57;100.00;115900.28;4875762;29;20052;-88
2023/05/22 06:26:46;;;;;;;16.42;11.18;;;;;;;-142.57;100.00;115900.28;4874054;29;20137;-88
2023/05/22 06:29:12;;;;;;;19.17;10.50;;;;;;;-142.57;100.00;115900.28;4872067;29;20061;-90
2023/05/22 06:31:41;;;;;;;21.67;10.38;;;;;;;-142.57;100.00;115900.28;4857882;29;20049;-89
2023/05/22 06:34:08;;;;;;;14.30;9.65;;;;;;;-142.57;100.00;115900.28;4893438;23;20248;-87
2023/05/22 06:36:34;;;;;;;17.80;9.35;;;;;;;-142.57;100.00;115900.28;4890884;29;20040;-88
2023/05/22 06:39:02;;;;;;;14.32;9.18;;;;;;;-142.57;100.00;115900.28;4875260;29;20514;-86
2023/05/22 06:41:47;;;;;;;14.27;10.15;;;;;;;-142.57;100.00;115900.28;4905025;29;20052;-88
2023/05/22 06:44:13;;;;;;;23.90;9.93;;;;;;;-142.57;100.00;115900.28;4890471;29;20044;-82
2023/05/22 06:46:40;;;;;;;16.33;9.40;;;;;;;-142.57;100.00;115900.28;4906742;29;20041;-82
2023/05/22 06:49:22;;;;;;;14.25;8.95;;;;;;;-142.57;100.00;115900.28;4908990;29;20483;-82
2023/05/22 06:51:51;;;;;;;13.57;9.10;;;;;;;-142.57;100.00;115900.28;4898520;29;20069;-82
2023/05/22 06:54:18;;;;;;;13.73;9.32;;;;;;;-142.57;100.00;115900.28;4897080;29;20044;-84
2023/05/22 06:56:46;;;;;;;15.20;9.35;;;;;;;-142.57;100.00;115900.28;4906058;29;20032;-82
2023/05/22 06:59:15;;;;;;;14.50;9.60;;;;;;;-142.57;98.92;115900.28;4905383;29;20064;-85
2023/05/22 07:02:00;;;;;;;13.15;9.10;;;;;;;-142.57;93.74;115900.28;4911502;29;20463;-82
2023/05/22 07:04:51;;;;;;;13.30;8.40;;;;;;;-142.57;89.66;115900.28;4894348;29;20045;-84
2023/05/22 07:07:21;;;;;;;14.23;8.32;;;;;;;-142.57;84.89;115900.28;4879233;29;20065;-81
2023/05/22 07:09:47;;;;;;;14.38;8.55;;;;;;;-142.57;77.23;115900.28;4892629;29;20040;-86
2023/05/22 07:12:14;;;;;;;12.45;7.82;;;;;;;-142.57;73.70;115900.28;4915547;29;20032;-83
2023/05/22 07:14:39;;;;;;;15.55;8.30;;;;;;;-142.57;75.00;115900.28;4894580;29;20399;-85
2023/05/22 07:17:12;;;;;;;10.95;7.95;;;;;;;-142.57;69.81;115900.28;4906298;29;20044;-82
2023/05/22 07:19:42;;;;;;;16.70;8.10;;;;;;;-142.57;66.30;115900.28;4883706;29;20039;-86
2023/05/22 07:22:09;;;;;;;13.15;7.68;;;;;;;-142.57;68.62;115900.28;4876258;29;20504;-85
2023/05/22 07:24:37;;;;;;;15.38;8.38;;;;;;;-142.57;63.39;115900.28;4890867;29;20044;-82
2023/05/22 07:27:07;;;;;;;16.85;7.70;;;;;;;-142.57;65.92;115900.28;4889001;29;20033;-83
2023/05/22 07:29:35;;;;;;;11.18;8.05;;;;;;;-142.57;65.35;115900.28;4887452;29;20032;-81
2023/05/22 07:32:05;;;;;;;10.85;7.00;;;;;;;-142.57;63.40;115900.28;4888241;29;20037;-84
2023/05/22 07:34:37;;;;;;;10.48;7.03;;;;;;;-142.57;58.75;115900.28;4894557;29;20033;-81
2023/05/22 07:37:07;;;;;;;10.43;7.40;;;;;;;-142.57;59.17;115900.28;4909978;29;20053;-84
2023/05/22 07:39:33;;;;;;;11.52;7.68;;;;;;;-142.57;59.18;115900.28;4890270;29;20044;-86
2023/05/22 07:42:14;;;;;;;10.70;7.10;;;;;;;-142.57;58.85;115900.28;4910581;29;20076;-83
2023/05/22 07:44:56;;;;;;;12.73;7.35;;;;;;;-142.57;57.60;115900.28;4910395;29;20039;-82
2023/05/22 07:47:23;;;;;;;12.48;6.60;;;;;;;-142.57;55.11;115900.28;4909900;23;20085;-81
2023/05/22 07:49:49;;;;;;;12.70;6.45;;;;;;;-142.57;53.66;115900.28;4878036;29;20088;-86
2023/05/22 07:52:15;;;;;;;11.57;7.70;;;;;;;-142.57;52.56;115900.28;4871947;23;20084;-81
2023/05/22 07:54:41;;;;;;;12.52;7.35;;;;;;;-142.57;52.26;115900.28;4898704;29;20032;-80
2023/05/22 07:57:08;;;;;;;16.58;6.70;;;;;;;-142.57;48.98;115900.28;4891103;29;20037;-84
2023/05/22 07:59:37;;;;;;;13.02;6.85;;;;;;;-142.57;49.35;115900.28;4903816;29;20389;-82
2023/05/22 08:02:02;;;;;;;13.32;7.50;;;;;;;-142.57;49.16;115900.28;4916744;29;20123;-84
2023/05/22 08:04:28;;;;;;;10.32;7.13;;;;;;;-142.57;50.79;115900.28;4918991;23;20131;-82
2023/05/22 08:06:58;;;;;;;12.43;7.18;;;;;;;-142.57;47.96;115900.28;4910789;29;20044;-81
2023/05/22 08:09:26;;;;;;;11.70;7.35;;;;;;;-142.57;47.41;115900.28;4907590;29;20028;-84
2023/05/22 08:11:51;;;;;;;13.35;7.90;;;;;;;-142.57;48.63;115900.28;4927312;23;20059;-85
2023/05/22 08:14:21;;;;;;;9.20;6.32;;;;;;;-142.57;48.89;115900.28;4904663;29;20064;-83
2023/05/22 08:16:47;;;;;;;14.55;6.75;;;;;;;-142.57;48.27;115900.28;4929117;23;20052;-83
2023/05/22 08:19:16;;;;;;;18.20;6.55;;;;;;;-142.57;46.13;115900.28;4929783;29;20060;-82
2023/05/22 08:21:44;;;;;;;14.70;7.22;;;;;;;-142.57;46.85;115900.28;4929380;29;20036;-81
2023/05/22 08:24:10;;;;;;;12.38;6.75;;;;;;;-142.57;47.00;115900.28;4896994;29;20048;-83
2023/05/22 08:26:36;;;;;;;11.35;7.22;;;;;;;-142.57;47.02;115900.28;4932026;29;20037;-83
2023/05/22 08:29:05;;;;;;;13.05;7.40;;;;;;;-142.57;46.24;115900.28;4932260;29;20114;-83
2023/05/22 08:31:34;;;;;;;15.63;7.15;;;;;;;-142.57;46.02;115900.28;4929084;29;20119;-82
2023/05/22 08:34:05;;;;;;;12.95;7.30;;;;;;;-142.57;45.34;115900.28;4929073;23;20135;-82
2023/05/22 08:36:32;;;;;;;12.13;7.55;;;;;;;-142.57;45.43;115900.28;4893272;29;20041;-82
2023/05/22 08:39:01;;;;;;;12.02;6.65;;;;;;;-142.57;44.29;115900.28;4890430;29;20032;-82
2023/05/22 08:41:31;;;;;;;14.77;6.75;;;;;;;-142.57;43.08;115900.28;4909793;29;20036;-82
2023/05/22 08:43:57;;;;;;;11.55;6.28;;;;;;;-142.57;43.40;115900.28;4901283;29;20048;-82
2023/05/22 08:46:27;;;;;;;13.55;6.47;;;;;;;-142.57;39.13;115900.28;4906742;29;20040;-82
2023/05/22 08:48:56;;;;;;;19.05;6.60;;;;;;;-142.57;39.95;115900.28;4880344;23;20037;-83
2023/05/22 08:51:34;;;;;;;14.00;7.10;;;;;;;-142.57;42.35;115900.28;4890705;29;20029;-84
2023/05/22 08:54:06;;;;;;;9.77;6.07;;;;;;;-142.57;43.59;115900.28;4897699;29;20053;-81
2023/05/22 08:56:39;;;;;;;10.52;6.70;;;;;;;-142.57;42.73;115900.28;4890667;29;20037;-83
2023/05/22 08:59:06;;;;;;;13.02;6.65;;;;;;;-142.57;42.17;115900.28;4897196;23;20073;-84
2023/05/22 09:01:32;;;;;;;13.30;5.90;;;;;;;-142.57;40.43;115900.28;4902032;29;20959;-89
2023/05/22 09:04:00;;;;;;;8.60;5.80;;;;;;;-142.57;41.67;115900.28;4903216;29;20040;-86
2023/05/22 09:06:27;;;;;;;11.85;6.55;;;;;;;-142.57;40.71;115900.28;4897688;29;20036;-86
2023/05/22 09:08:58;;;;;;;11.65;5.25;;;;;;;-142.57;39.69;115900.28;4899883;29;20040;-86
2023/05/22 09:11:24;;;;;;;9.90;5.97;;;;;;;-142.57;40.09;115900.28;4901801;29;20045;-88
2023/05/22 09:13:51;;;;;;;21.58;7.03;;;;;;;-142.57;40.99;115900.28;4901995;29;20056;-89
2023/05/22 09:16:17;;;;;;;12.00;5.78;;;;;;;-142.57;40.31;115900.28;4897113;29;20091;-87
2023/05/22 09:18:43;;;;;;;9.52;5.85;;;;;;;-142.57;40.25;115900.28;4896137;29;20076;-87
2023/05/22 09:21:13;;;;;;;11.52;6.70;;;;;;;-142.57;39.30;115900.28;4879001;29;20028;-85
2023/05/22 09:23:42;;;;;;;8.73;6.00;;;;;;;-142.57;40.46;115900.28;4895066;29;20119;-86
2023/05/22 09:26:07;;;;;;;11.45;6.25;;;;;;;-142.57;40.07;115900.28;4909917;29;20131;-86
2023/05/22 09:28:35;;;;;;;10.07;6.22;;;;;;;-142.57;38.64;115900.28;4903137;29;20103;-85
2023/05/22 09:31:02;;;;;;;15.35;6.13;;;;;;;-142.57;39.94;115900.28;4883985;29;20036;-86
2023/05/22 09:33:28;;;;;;;15.02;5.93;;;;;;;-142.57;40.38;115900.28;4880347;29;20044;-88
2023/05/22 09:35:56;;;;;;;12.30;6.20;;;;;;;-142.57;41.79;115900.28;4897169;29;20035;-85
2023/05/22 09:38:26;;;;;;;11.25;6.22;;;;;;;-142.57;39.84;115900.28;4898289;29;20483;-86
2023/05/22 09:40:56;;;;;;;12.00;5.88;;;;;;;-142.57;39.46;115900.28;4902762;29;20040;-85
2023/05/22 09:43:26;;;;;;;9.57;5.47;;;;;;;-142.57;39.90;115900.28;4908041;29;20104;-87
2023/05/22 09:45:56;;;;;;;7.53;6.00;;;;;;;-142.57;38.71;115900.28;4908392;29;20096;-83
2023/05/22 09:48:22;;;;;;;9.98;6.18;;;;;;;-142.57;39.61;115900.28;4889680;29;20112;-88
2023/05/22 09:50:52;;;;;;;15.88;6.60;;;;;;;-142.57;38.00;115900.28;4866543;29;20495;-85
2023/05/22 09:53:19;;;;;;;14.60;6.45;;;;;;;-142.57;37.98;115900.28;4898905;29;20037;-87
2023/05/22 09:55:49;;;;;;;15.55;5.68;;;;;;;-142.57;37.19;115900.28;4897461;29;20509;-87
2023/05/22 09:58:17;;;;;;;11.65;6.00;;;;;;;-142.57;38.00;115900.28;4901792;29;20036;-86
2023/05/22 10:00:44;;;;;;;10.63;6.07;;;;;;;-142.57;38.20;115900.28;4903438;29;20047;-88
2023/05/22 10:03:17;;;;;;;12.60;6.18;;;;;;;-142.57;38.04;115900.28;4886008;29;20140;-87
2023/05/22 10:05:47;;;;;;;9.70;6.05;;;;;;;-142.57;39.07;115900.28;4882669;29;20519;-87
2023/05/22 10:08:16;;;;;;;13.68;6.90;;;;;;;-142.57;39.24;115900.28;4895046;29;20040;-84
2023/05/22 10:10:49;;;;;;;11.05;6.35;;;;;;;-142.57;39.61;115900.28;4871491;29;20049;-88
2023/05/22 10:13:15;;;;;;;12.40;6.65;;;;;;;-142.57;37.76;115900.28;4886455;29;20044;-85
2023/05/22 10:15:41;;;;;;;10.88;6.35;;;;;;;-142.57;38.90;115900.28;4885600;29;20025;-88
2023/05/22 10:18:08;;;;;;;16.67;6.93;;;;;;;-142.57;39.72;115900.28;4883909;29;20048;-84
2023/05/22 10:20:34;;;;;;;13.55;6.50;;;;;;;-142.57;37.42;115900.28;4883531;29;20037;-84
2023/05/22 10:23:02;;;;;;;14.60;6.18;;;;;;;-142.57;37.11;115900.28;4885698;29;20037;-88
2023/05/22 10:25:31;;;;;;;7.23;5.30;;;;;;;-142.57;36.94;115900.28;4869394;29;20078;-86
2023/05/22 10:27:58;;;;;;;12.57;5.82;;;;;;;-142.57;36.33;115900.28;4887892;29;20052;-88
2023/05/22 10:34:04;;;;;;;11.32;5.90;;;;;;;-142.57;37.25;115900.28;4809433;29;20057;-90
2023/05/22 10:36:51;;;;;;;10.35;5.65;;;;;;;-142.57;36.76;115900.28;4825975;29;20049;-89
2023/05/22 10:39:42;;;;;;;13.77;6.05;;;;;;;-142.57;38.21;115900.28;4836924;29;20057;-90
2023/05/22 10:42:16;;;;;;;9.45;5.43;;;;;;;-142.57;39.02;115900.28;4851076;29;20071;-88
2023/05/22 10:44:42;;;;;;;13.70;6.40;;;;;;;-142.57;39.64;115900.28;4830831;29;20056;-89
2023/05/22 10:47:12;;;;;;;15.30;6.93;;;;;;;-142.57;37.64;115900.28;4846088;29;20384;-88
2023/05/22 10:49:44;;;;;;;10.77;6.15;;;;;;;-142.57;37.59;115900.28;4847048;29;20046;-89
2023/05/22 10:52:13;;;;;;;9.32;6.15;;;;;;;-142.57;38.16;115900.28;4848291;29;20053;-90
2023/05/22 10:54:45;;;;;;;9.88;6.20;;;;;;;-142.57;37.09;115900.28;4851312;29;20057;-91
2023/05/22 10:57:16;;;;;;;15.20;6.35;;;;;;;-142.57;37.07;115900.28;4849100;29;20568;-92
2023/05/22 10:59:43;;;;;;;13.02;5.85;;;;;;;-142.57;37.13;115900.28;4835684;29;20433;-89
2023/05/22 11:02:30;;;;;;;10.40;5.95;;;;;;;-142.57;37.98;115900.28;4849315;29;20593;-92
2023/05/22 11:05:17;;;;;;;11.77;6.68;;;;;;;-142.57;38.17;115900.28;4850698;29;20709;-91
2023/05/22 11:07:45;;;;;;;15.70;10.20;;;;;;;-142.57;39.19;115900.28;4827681;29;20071;-87